sensor_id;sensor_type;location;lat;lon;timestamp;temperature;humidity
22678;DHT22;26259;50.214;18.620;2022-11-20T00:00:36;-8.40;99.90
22678;DHT22;26259;50.214;18.620;2022-11-20T00:03:02;-8.30;99.90
22678;DHT22;26259;50.214;18.620;2022-11-20T00:05:27;-8.40;99.90
22678;DHT22;26259;50.214;18.620;2022-11-20T00:07:53;-8.40;99.90
22678;DHT22;26259;50.214;18.620;2022-11-20T00:10:19;-8.40;99.90
22678;DHT22;26259;50.214;18.620;2022-11-20T00:12:44;-8.40;99.90
22678;DHT22;26259;50.214;18.620;2022-11-20T00:15:10;-8.50;99.90
22678;DHT22;26259;50.214;18.620;2022-11-20T00:17:35;-8.50;99.90
22678;DHT22;26259;50.214;18.620;2022-11-20T00:20:01;-8.50;99.90
22678;DHT22;26259;50.214;18.620;2022-11-20T00:22:26;-8.50;99.90
22678;DHT22;26259;50.214;18.620;2022-11-20T00:24:52;-8.50;99.90
22678;DHT22;26259;50.214;18.620;2022-11-20T00:27:18;-8.50;99.90
22678;DHT22;26259;50.214;18.620;2022-11-20T00:29:43;-8.50;99.90
22678;DHT22;26259;50.214;18.620;2022-11-20T00:32:09;-8.50;99.90
22678;DHT22;26259;50.214;18.620;2022-11-20T00:34:34;-8.60;99.90
22678;DHT22;26259;50.214;18.620;2022-11-20T00:37:00;-8.60;99.90
22678;DHT22;26259;50.214;18.620;2022-11-20T00:39:25;-8.60;99.90
22678;DHT22;26259;50.214;18.620;2022-11-20T00:41:51;-8.60;99.90
22678;DHT22;26259;50.214;18.620;2022-11-20T00:44:16;-8.60;99.90
22678;DHT22;26259;50.214;18.620;2022-11-20T00:46:42;-8.60;99.90
22678;DHT22;26259;50.214;18.620;2022-11-20T00:49:08;-8.60;99.90
22678;DHT22;26259;50.214;18.620;2022-11-20T00:51:33;-8.60;99.90
22678;DHT22;26259;50.214;18.620;2022-11-20T00:53:59;-8.60;99.90
22678;DHT22;26259;50.214;18.620;2022-11-20T00:56:27;-8.60;99.90
22678;DHT22;26259;50.214;18.620;2022-11-20T00:58:53;-8.70;99.90
22678;DHT22;26259;50.214;18.620;2022-11-20T01:01:21;-8.70;99.90
22678;DHT22;26259;50.214;18.620;2022-11-20T01:03:49;-8.70;99.90
22678;DHT22;26259;50.214;18.620;2022-11-20T01:06:27;-8.70;99.90
22678;DHT22;26259;50.214;18.620;2022-11-20T01:08:56;-8.70;99.90
22678;DHT22;26259;50.214;18.620;2022-11-20T01:11:27;-8.70;99.90
22678;DHT22;26259;50.214;18.620;2022-11-20T01:13:54;-8.70;99.90
22678;DHT22;26259;50.214;18.620;2022-11-20T01:16:27;-8.80;99.90
22678;DHT22;26259;50.214;18.620;2022-11-20T01:18:55;-8.70;99.90
22678;DHT22;26259;50.214;18.620;2022-11-20T01:23:49;-8.60;99.90
22678;DHT22;26259;50.214;18.620;2022-11-20T01:26:17;-8.70;99.90
22678;DHT22;26259;50.214;18.620;2022-11-20T01:28:43;-8.70;99.90
22678;DHT22;26259;50.214;18.620;2022-11-20T01:31:21;-8.70;99.90
22678;DHT22;26259;50.214;18.620;2022-11-20T01:33:48;-8.70;99.90
22678;DHT22;26259;50.214;18.620;2022-11-20T01:36:15;-8.70;99.90
22678;DHT22;26259;50.214;18.620;2022-11-20T01:38:41;-8.80;99.90
22678;DHT22;26259;50.214;18.620;2022-11-20T01:41:08;-8.80;99.90
22678;DHT22;26259;50.214;18.620;2022-11-20T01:43:34;-8.80;99.90
22678;DHT22;26259;50.214;18.620;2022-11-20T01:46:15;-8.90;99.90
22678;DHT22;26259;50.214;18.620;2022-11-20T01:48:54;-9.00;99.90
22678;DHT22;26259;50.214;18.620;2022-11-20T01:51:27;-8.90;99.90
22678;DHT22;26259;50.214;18.620;2022-11-20T01:53:59;-9.00;99.90
22678;DHT22;26259;50.214;18.620;2022-11-20T01:56:26;-9.00;99.90
22678;DHT22;26259;50.214;18.620;2022-11-20T01:58:55;-9.00;99.90
22678;DHT22;26259;50.214;18.620;2022-11-20T02:01:22;-9.00;99.90
22678;DHT22;26259;50.214;18.620;2022-11-20T02:03:49;-9.00;99.90
22678;DHT22;26259;50.214;18.620;2022-11-20T02:06:22;-9.00;99.90
22678;DHT22;26259;50.214;18.620;2022-11-20T02:08:48;-9.00;99.90
22678;DHT22;26259;50.214;18.620;2022-11-20T02:11:14;-9.10;99.90
22678;DHT22;26259;50.214;18.620;2022-11-20T02:13:40;-9.10;99.90
22678;DHT22;26259;50.214;18.620;2022-11-20T02:18:46;-9.10;99.90
22678;DHT22;26259;50.214;18.620;2022-11-20T02:26:18;-9.10;99.90
22678;DHT22;26259;50.214;18.620;2022-11-20T02:28:44;-9.10;99.90
22678;DHT22;26259;50.214;18.620;2022-11-20T02:31:09;-9.10;99.90
22678;DHT22;26259;50.214;18.620;2022-11-20T02:33:35;-9.10;99.90
22678;DHT22;26259;50.214;18.620;2022-11-20T02:36:01;-9.10;99.90
22678;DHT22;26259;50.214;18.620;2022-11-20T02:38:26;-9.00;99.90
22678;DHT22;26259;50.214;18.620;2022-11-20T02:40:52;-9.00;99.90
22678;DHT22;26259;50.214;18.620;2022-11-20T02:43:17;-9.00;99.90
22678;DHT22;26259;50.214;18.620;2022-11-20T02:45:43;-9.00;99.90
22678;DHT22;26259;50.214;18.620;2022-11-20T02:48:08;-8.90;99.90
22678;DHT22;26259;50.214;18.620;2022-11-20T02:50:37;-9.00;99.90
22678;DHT22;26259;50.214;18.620;2022-11-20T02:53:03;-9.00;99.90
22678;DHT22;26259;50.214;18.620;2022-11-20T02:55:28;-9.10;99.90
22678;DHT22;26259;50.214;18.620;2022-11-20T02:57:54;-9.10;99.90
22678;DHT22;26259;50.214;18.620;2022-11-20T03:00:20;-9.10;99.90
22678;DHT22;26259;50.214;18.620;2022-11-20T03:02:46;-9.10;99.90
22678;DHT22;26259;50.214;18.620;2022-11-20T03:05:11;-9.10;99.90
22678;DHT22;26259;50.214;18.620;2022-11-20T03:07:37;-9.20;99.90
22678;DHT22;26259;50.214;18.620;2022-11-20T03:10:03;-9.20;99.90
22678;DHT22;26259;50.214;18.620;2022-11-20T03:12:29;-9.10;99.90
22678;DHT22;26259;50.214;18.620;2022-11-20T03:14:55;-9.10;99.90
22678;DHT22;26259;50.214;18.620;2022-11-20T03:17:20;-9.10;99.90
22678;DHT22;26259;50.214;18.620;2022-11-20T03:19:46;-9.10;99.90
22678;DHT22;26259;50.214;18.620;2022-11-20T03:22:11;-9.10;99.90
22678;DHT22;26259;50.214;18.620;2022-11-20T03:24:37;-9.10;99.90
22678;DHT22;26259;50.214;18.620;2022-11-20T03:27:03;-9.20;99.90
22678;DHT22;26259;50.214;18.620;2022-11-20T03:29:28;-9.10;99.90
22678;DHT22;26259;50.214;18.620;2022-11-20T03:31:54;-9.10;99.90
22678;DHT22;26259;50.214;18.620;2022-11-20T03:34:19;-9.10;99.90
22678;DHT22;26259;50.214;18.620;2022-11-20T03:36:45;-9.10;99.90
22678;DHT22;26259;50.214;18.620;2022-11-20T03:39:10;-9.10;99.90
22678;DHT22;26259;50.214;18.620;2022-11-20T03:41:38;-9.00;99.90
22678;DHT22;26259;50.214;18.620;2022-11-20T03:44:06;-9.10;99.90
22678;DHT22;26259;50.214;18.620;2022-11-20T03:46:32;-9.10;99.90
22678;DHT22;26259;50.214;18.620;2022-11-20T03:48:57;-9.00;99.90
22678;DHT22;26259;50.214;18.620;2022-11-20T03:51:28;-9.10;99.90
22678;DHT22;26259;50.214;18.620;2022-11-20T03:53:57;-9.10;99.90
22678;DHT22;26259;50.214;18.620;2022-11-20T03:56:25;-9.10;99.90
22678;DHT22;26259;50.214;18.620;2022-11-20T03:58:51;-9.00;99.90
22678;DHT22;26259;50.214;18.620;2022-11-20T04:01:19;-9.10;99.90
22678;DHT22;26259;50.214;18.620;2022-11-20T04:03:45;-9.10;99.90
22678;DHT22;26259;50.214;18.620;2022-11-20T04:06:12;-9.10;99.90
22678;DHT22;26259;50.214;18.620;2022-11-20T04:08:39;-9.10;99.90
22678;DHT22;26259;50.214;18.620;2022-11-20T04:13:41;-9.10;99.90
22678;DHT22;26259;50.214;18.620;2022-11-20T04:16:08;-9.10;99.90
22678;DHT22;26259;50.214;18.620;2022-11-20T04:18:33;-9.00;99.90
22678;DHT22;26259;50.214;18.620;2022-11-20T04:21:00;-9.00;99.90
22678;DHT22;26259;50.214;18.620;2022-11-20T04:23:26;-9.00;99.90
22678;DHT22;26259;50.214;18.620;2022-11-20T04:25:52;-9.10;99.90
22678;DHT22;26259;50.214;18.620;2022-11-20T04:28:18;-9.10;99.90
22678;DHT22;26259;50.214;18.620;2022-11-20T04:30:44;-9.20;99.90
22678;DHT22;26259;50.214;18.620;2022-11-20T04:33:09;-9.20;99.90
22678;DHT22;26259;50.214;18.620;2022-11-20T04:35:36;-9.20;99.90
22678;DHT22;26259;50.214;18.620;2022-11-20T04:38:03;-9.30;99.90
22678;DHT22;26259;50.214;18.620;2022-11-20T04:40:29;-9.30;99.90
22678;DHT22;26259;50.214;18.620;2022-11-20T04:42:55;-9.30;99.90
22678;DHT22;26259;50.214;18.620;2022-11-20T04:45:21;-9.30;99.90
22678;DHT22;26259;50.214;18.620;2022-11-20T04:47:47;-9.30;99.90
22678;DHT22;26259;50.214;18.620;2022-11-20T04:50:13;-9.40;99.90
22678;DHT22;26259;50.214;18.620;2022-11-20T04:52:38;-9.40;99.90
22678;DHT22;26259;50.214;18.620;2022-11-20T04:55:04;-9.40;99.90
22678;DHT22;26259;50.214;18.620;2022-11-20T04:57:30;-9.40;99.90
22678;DHT22;26259;50.214;18.620;2022-11-20T04:59:56;-9.40;99.90
22678;DHT22;26259;50.214;18.620;2022-11-20T05:02:21;-9.30;99.90
22678;DHT22;26259;50.214;18.620;2022-11-20T05:04:47;-9.30;99.90
22678;DHT22;26259;50.214;18.620;2022-11-20T05:07:13;-9.30;99.90
22678;DHT22;26259;50.214;18.620;2022-11-20T05:09:38;-9.20;99.90
22678;DHT22;26259;50.214;18.620;2022-11-20T05:12:04;-9.30;99.90
22678;DHT22;26259;50.214;18.620;2022-11-20T05:14:30;-9.30;99.90
22678;DHT22;26259;50.214;18.620;2022-11-20T05:16:55;-9.20;99.90
22678;DHT22;26259;50.214;18.620;2022-11-20T05:19:21;-9.20;99.90
22678;DHT22;26259;50.214;18.620;2022-11-20T05:21:46;-9.20;99.90
22678;DHT22;26259;50.214;18.620;2022-11-20T05:24:12;-9.20;99.90
22678;DHT22;26259;50.214;18.620;2022-11-20T05:26:38;-9.20;99.90
22678;DHT22;26259;50.214;18.620;2022-11-20T05:29:03;-9.30;99.90
22678;DHT22;26259;50.214;18.620;2022-11-20T05:31:29;-9.40;99.90
22678;DHT22;26259;50.214;18.620;2022-11-20T05:33:56;-9.40;99.90
22678;DHT22;26259;50.214;18.620;2022-11-20T05:36:22;-9.40;99.90
22678;DHT22;26259;50.214;18.620;2022-11-20T05:38:47;-9.40;99.90
22678;DHT22;26259;50.214;18.620;2022-11-20T05:41:15;-9.40;99.90
22678;DHT22;26259;50.214;18.620;2022-11-20T05:43:42;-9.30;99.90
22678;DHT22;26259;50.214;18.620;2022-11-20T05:46:11;-9.30;99.90
22678;DHT22;26259;50.214;18.620;2022-11-20T05:48:40;-9.30;99.90
22678;DHT22;26259;50.214;18.620;2022-11-20T05:51:08;-9.30;99.90
22678;DHT22;26259;50.214;18.620;2022-11-20T05:53:34;-9.40;99.90
22678;DHT22;26259;50.214;18.620;2022-11-20T05:56:02;-9.40;99.90
22678;DHT22;26259;50.214;18.620;2022-11-20T05:58:28;-9.30;99.90
22678;DHT22;26259;50.214;18.620;2022-11-20T06:00:55;-9.30;99.90
22678;DHT22;26259;50.214;18.620;2022-11-20T06:03:28;-9.30;99.90
22678;DHT22;26259;50.214;18.620;2022-11-20T06:05:53;-9.30;99.90
22678;DHT22;26259;50.214;18.620;2022-11-20T06:08:19;-9.40;99.90
22678;DHT22;26259;50.214;18.620;2022-11-20T06:10:44;-9.40;99.90
22678;DHT22;26259;50.214;18.620;2022-11-20T06:13:10;-9.40;99.90
22678;DHT22;26259;50.214;18.620;2022-11-20T06:15:35;-9.30;99.90
22678;DHT22;26259;50.214;18.620;2022-11-20T06:18:01;-9.30;99.90
22678;DHT22;26259;50.214;18.620;2022-11-20T06:20:26;-9.30;99.90
22678;DHT22;26259;50.214;18.620;2022-11-20T06:22:52;-9.40;99.90
22678;DHT22;26259;50.214;18.620;2022-11-20T06:25:18;-9.30;99.90
22678;DHT22;26259;50.214;18.620;2022-11-20T06:27:43;-9.30;99.90
22678;DHT22;26259;50.214;18.620;2022-11-20T06:30:09;-9.30;99.90
22678;DHT22;26259;50.214;18.620;2022-11-20T06:32:35;-9.30;99.90
22678;DHT22;26259;50.214;18.620;2022-11-20T06:35:00;-9.30;99.90
22678;DHT22;26259;50.214;18.620;2022-11-20T06:37:26;-9.20;99.90
22678;DHT22;26259;50.214;18.620;2022-11-20T06:39:51;-9.20;99.90
22678;DHT22;26259;50.214;18.620;2022-11-20T06:42:17;-9.20;99.90
22678;DHT22;26259;50.214;18.620;2022-11-20T06:44:43;-9.10;99.90
22678;DHT22;26259;50.214;18.620;2022-11-20T06:47:08;-9.10;99.90
22678;DHT22;26259;50.214;18.620;2022-11-20T06:49:34;-9.00;99.90
22678;DHT22;26259;50.214;18.620;2022-11-20T06:51:59;-9.00;99.90
22678;DHT22;26259;50.214;18.620;2022-11-20T06:54:25;-8.90;99.90
22678;DHT22;26259;50.214;18.620;2022-11-20T06:56:51;-8.80;99.90
22678;DHT22;26259;50.214;18.620;2022-11-20T06:59:16;-8.80;99.90
22678;DHT22;26259;50.214;18.620;2022-11-20T07:01:42;-8.70;99.90
22678;DHT22;26259;50.214;18.620;2022-11-20T07:04:07;-8.60;99.90
22678;DHT22;26259;50.214;18.620;2022-11-20T07:06:33;-8.50;99.90
22678;DHT22;26259;50.214;18.620;2022-11-20T07:08:58;-8.50;99.90
22678;DHT22;26259;50.214;18.620;2022-11-20T07:11:24;-8.40;99.90
22678;DHT22;26259;50.214;18.620;2022-11-20T07:13:50;-8.40;99.90
22678;DHT22;26259;50.214;18.620;2022-11-20T07:16:16;-8.30;99.90
22678;DHT22;26259;50.214;18.620;2022-11-20T07:18:41;-8.10;99.90
22678;DHT22;26259;50.214;18.620;2022-11-20T07:21:09;-8.00;99.90
22678;DHT22;26259;50.214;18.620;2022-11-20T07:23:36;-8.00;99.90
22678;DHT22;26259;50.214;18.620;2022-11-20T07:26:09;-7.90;99.90
22678;DHT22;26259;50.214;18.620;2022-11-20T07:28:35;-7.80;99.90
22678;DHT22;26259;50.214;18.620;2022-11-20T07:31:01;-7.60;99.90
22678;DHT22;26259;50.214;18.620;2022-11-20T07:33:27;-7.50;99.90
22678;DHT22;26259;50.214;18.620;2022-11-20T07:35:52;-7.40;99.90
22678;DHT22;26259;50.214;18.620;2022-11-20T07:38:18;-7.30;99.90
22678;DHT22;26259;50.214;18.620;2022-11-20T07:40:43;-7.20;99.90
22678;DHT22;26259;50.214;18.620;2022-11-20T07:43:09;-7.00;99.90
22678;DHT22;26259;50.214;18.620;2022-11-20T07:45:35;-6.90;99.90
22678;DHT22;26259;50.214;18.620;2022-11-20T07:48:00;-6.80;99.90
22678;DHT22;26259;50.214;18.620;2022-11-20T07:50:26;-6.60;99.90
22678;DHT22;26259;50.214;18.620;2022-11-20T07:52:51;-6.50;99.90
22678;DHT22;26259;50.214;18.620;2022-11-20T07:55:17;-6.30;99.90
22678;DHT22;26259;50.214;18.620;2022-11-20T07:57:43;-6.20;99.90
22678;DHT22;26259;50.214;18.620;2022-11-20T08:00:10;-6.00;99.90
22678;DHT22;26259;50.214;18.620;2022-11-20T08:02:40;-5.90;99.90
22678;DHT22;26259;50.214;18.620;2022-11-20T08:05:07;-5.70;99.90
22678;DHT22;26259;50.214;18.620;2022-11-20T08:07:40;-5.60;99.90
22678;DHT22;26259;50.214;18.620;2022-11-20T08:10:08;-5.40;99.90
22678;DHT22;26259;50.214;18.620;2022-11-20T08:12:34;-5.30;99.90
22678;DHT22;26259;50.214;18.620;2022-11-20T08:15:18;-5.10;99.90
22678;DHT22;26259;50.214;18.620;2022-11-20T08:17:44;-4.90;99.90
22678;DHT22;26259;50.214;18.620;2022-11-20T08:20:10;-4.80;99.90
22678;DHT22;26259;50.214;18.620;2022-11-20T08:22:35;-4.60;99.90
22678;DHT22;26259;50.214;18.620;2022-11-20T08:25:01;-4.50;99.90
22678;DHT22;26259;50.214;18.620;2022-11-20T08:27:27;-4.30;99.90
22678;DHT22;26259;50.214;18.620;2022-11-20T08:29:52;-4.20;99.90
22678;DHT22;26259;50.214;18.620;2022-11-20T08:32:18;-4.00;99.90
22678;DHT22;26259;50.214;18.620;2022-11-20T08:34:44;-3.90;99.90
22678;DHT22;26259;50.214;18.620;2022-11-20T08:37:09;-3.80;99.90
22678;DHT22;26259;50.214;18.620;2022-11-20T08:39:35;-3.60;99.90
22678;DHT22;26259;50.214;18.620;2022-11-20T08:42:00;-3.50;99.90
22678;DHT22;26259;50.214;18.620;2022-11-20T08:44:26;-3.40;99.90
22678;DHT22;26259;50.214;18.620;2022-11-20T08:46:51;-3.20;99.90
22678;DHT22;26259;50.214;18.620;2022-11-20T08:49:17;-3.10;99.90
22678;DHT22;26259;50.214;18.620;2022-11-20T08:51:43;-2.90;99.90
22678;DHT22;26259;50.214;18.620;2022-11-20T08:54:09;-2.90;99.90
22678;DHT22;26259;50.214;18.620;2022-11-20T08:56:35;-2.80;99.90
22678;DHT22;26259;50.214;18.620;2022-11-20T08:59:01;-2.80;99.90
22678;DHT22;26259;50.214;18.620;2022-11-20T09:01:27;-2.70;99.90
22678;DHT22;26259;50.214;18.620;2022-11-20T09:03:55;-2.70;99.90
22678;DHT22;26259;50.214;18.620;2022-11-20T09:06:21;-2.70;99.90
22678;DHT22;26259;50.214;18.620;2022-11-20T09:08:51;-2.70;99.90
22678;DHT22;26259;50.214;18.620;2022-11-20T09:11:16;-2.50;99.90
22678;DHT22;26259;50.214;18.620;2022-11-20T09:13:42;-2.50;99.90
22678;DHT22;26259;50.214;18.620;2022-11-20T09:16:08;-2.40;99.90
22678;DHT22;26259;50.214;18.620;2022-11-20T09:18:35;-2.30;99.90
22678;DHT22;26259;50.214;18.620;2022-11-20T09:21:10;-2.10;99.90
22678;DHT22;26259;50.214;18.620;2022-11-20T09:23:37;-2.00;99.90
22678;DHT22;26259;50.214;18.620;2022-11-20T09:26:04;-1.80;99.90
22678;DHT22;26259;50.214;18.620;2022-11-20T09:28:30;-1.70;99.90
22678;DHT22;26259;50.214;18.620;2022-11-20T09:30:56;-1.60;99.90
22678;DHT22;26259;50.214;18.620;2022-11-20T09:33:22;-1.50;99.90
22678;DHT22;26259;50.214;18.620;2022-11-20T09:35:47;-1.30;99.90
22678;DHT22;26259;50.214;18.620;2022-11-20T09:38:13;-1.30;99.90
22678;DHT22;26259;50.214;18.620;2022-11-20T09:41:03;-1.20;99.90
22678;DHT22;26259;50.214;18.620;2022-11-20T09:43:47;-1.10;99.90
22678;DHT22;26259;50.214;18.620;2022-11-20T09:52:20;-0.80;99.90
22678;DHT22;26259;50.214;18.620;2022-11-20T09:54:48;-0.70;99.90
22678;DHT22;26259;50.214;18.620;2022-11-20T09:57:20;-0.60;99.90
22678;DHT22;26259;50.214;18.620;2022-11-20T09:59:52;-0.50;99.90
22678;DHT22;26259;50.214;18.620;2022-11-20T10:02:29;-0.40;99.90
22678;DHT22;26259;50.214;18.620;2022-11-20T10:05:18;-0.30;99.90
22678;DHT22;26259;50.214;18.620;2022-11-20T10:10:53;-0.10;99.90
22678;DHT22;26259;50.214;18.620;2022-11-20T10:16:32;0.00;99.90
22678;DHT22;26259;50.214;18.620;2022-11-20T10:24:33;0.20;99.90
22678;DHT22;26259;50.214;18.620;2022-11-20T10:27:32;0.20;99.90
22678;DHT22;26259;50.214;18.620;2022-11-20T10:30:18;0.20;99.90
22678;DHT22;26259;50.214;18.620;2022-11-20T10:38:14;0.40;99.90
22678;DHT22;26259;50.214;18.620;2022-11-20T10:40:44;0.40;99.90
22678;DHT22;26259;50.214;18.620;2022-11-20T10:46:05;0.50;99.90
22678;DHT22;26259;50.214;18.620;2022-11-20T10:48:34;0.60;99.90
22678;DHT22;26259;50.214;18.620;2022-11-20T10:51:37;0.70;99.90
22678;DHT22;26259;50.214;18.620;2022-11-20T10:56:38;0.80;99.90
22678;DHT22;26259;50.214;18.620;2022-11-20T11:01:41;1.00;99.90
22678;DHT22;26259;50.214;18.620;2022-11-20T11:07:13;1.20;99.90
22678;DHT22;26259;50.214;18.620;2022-11-20T11:09:50;1.20;99.90
22678;DHT22;26259;50.214;18.620;2022-11-20T11:12:18;1.20;99.90
22678;DHT22;26259;50.214;18.620;2022-11-20T11:14:45;1.20;99.90
22678;DHT22;26259;50.214;18.620;2022-11-20T11:17:30;1.30;99.90
22678;DHT22;26259;50.214;18.620;2022-11-20T11:22:25;1.50;99.90
22678;DHT22;26259;50.214;18.620;2022-11-20T11:24:54;1.60;99.90
22678;DHT22;26259;50.214;18.620;2022-11-20T11:27:19;1.60;99.90
22678;DHT22;26259;50.214;18.620;2022-11-20T11:29:46;1.70;99.90
22678;DHT22;26259;50.214;18.620;2022-11-20T11:32:19;1.80;99.90
22678;DHT22;26259;50.214;18.620;2022-11-20T11:34:59;1.80;99.90
22678;DHT22;26259;50.214;18.620;2022-11-20T11:37:28;1.80;99.90
22678;DHT22;26259;50.214;18.620;2022-11-20T11:39:57;1.90;99.90
22678;DHT22;26259;50.214;18.620;2022-11-20T11:42:24;2.00;99.90
22678;DHT22;26259;50.214;18.620;2022-11-20T11:44:49;2.00;99.90
22678;DHT22;26259;50.214;18.620;2022-11-20T11:47:33;2.10;99.90
22678;DHT22;26259;50.214;18.620;2022-11-20T11:52:49;2.20;99.90
22678;DHT22;26259;50.214;18.620;2022-11-20T11:55:42;2.20;99.90
22678;DHT22;26259;50.214;18.620;2022-11-20T12:04:12;2.30;99.90
22678;DHT22;26259;50.214;18.620;2022-11-20T12:06:42;2.30;99.90
22678;DHT22;26259;50.214;18.620;2022-11-20T12:09:10;2.40;99.90
22678;DHT22;26259;50.214;18.620;2022-11-20T12:11:43;2.50;99.90
22678;DHT22;26259;50.214;18.620;2022-11-20T12:14:27;2.60;99.90
22678;DHT22;26259;50.214;18.620;2022-11-20T12:16:56;2.70;99.90
22678;DHT22;26259;50.214;18.620;2022-11-20T12:19:30;2.70;99.90
22678;DHT22;26259;50.214;18.620;2022-11-20T12:28:06;2.60;99.90
22678;DHT22;26259;50.214;18.620;2022-11-20T12:30:41;2.50;99.90
22678;DHT22;26259;50.214;18.620;2022-11-20T12:36:31;2.40;99.90
22678;DHT22;26259;50.214;18.620;2022-11-20T12:45:34;2.50;99.90
22678;DHT22;26259;50.214;18.620;2022-11-20T13:01:49;2.60;99.90
22678;DHT22;26259;50.214;18.620;2022-11-20T13:06:45;2.50;99.90
22678;DHT22;26259;50.214;18.620;2022-11-20T13:09:16;2.50;99.90
22678;DHT22;26259;50.214;18.620;2022-11-20T13:11:50;2.40;99.90
22678;DHT22;26259;50.214;18.620;2022-11-20T13:14:33;2.30;99.90
22678;DHT22;26259;50.214;18.620;2022-11-20T13:17:18;2.20;99.90
22678;DHT22;26259;50.214;18.620;2022-11-20T13:19:56;2.10;99.90
22678;DHT22;26259;50.214;18.620;2022-11-20T13:22:29;2.10;99.90
22678;DHT22;26259;50.214;18.620;2022-11-20T13:24:54;2.20;99.90
22678;DHT22;26259;50.214;18.620;2022-11-20T13:27:22;2.20;99.90
22678;DHT22;26259;50.214;18.620;2022-11-20T13:30:26;2.40;99.90
22678;DHT22;26259;50.214;18.620;2022-11-20T13:33:08;2.40;99.90
22678;DHT22;26259;50.214;18.620;2022-11-20T13:35:35;2.40;99.90
22678;DHT22;26259;50.214;18.620;2022-11-20T13:38:06;2.30;99.90
22678;DHT22;26259;50.214;18.620;2022-11-20T13:40:32;2.30;99.90
22678;DHT22;26259;50.214;18.620;2022-11-20T13:43:38;2.30;99.90
22678;DHT22;26259;50.214;18.620;2022-11-20T13:46:07;2.30;99.90
22678;DHT22;26259;50.214;18.620;2022-11-20T13:49:08;2.20;99.90
22678;DHT22;26259;50.214;18.620;2022-11-20T13:51:49;2.20;99.90
22678;DHT22;26259;50.214;18.620;2022-11-20T13:59:57;2.10;99.90
22678;DHT22;26259;50.214;18.620;2022-11-20T14:02:26;2.00;99.90
22678;DHT22;26259;50.214;18.620;2022-11-20T14:04:54;2.00;99.90
22678;DHT22;26259;50.214;18.620;2022-11-20T14:07:27;2.00;99.90
22678;DHT22;26259;50.214;18.620;2022-11-20T14:09:57;2.00;99.90
22678;DHT22;26259;50.214;18.620;2022-11-20T14:12:28;2.00;99.90
22678;DHT22;26259;50.214;18.620;2022-11-20T14:14:55;1.90;99.90
22678;DHT22;26259;50.214;18.620;2022-11-20T14:17:22;1.90;99.90
22678;DHT22;26259;50.214;18.620;2022-11-20T14:19:51;1.90;99.90
22678;DHT22;26259;50.214;18.620;2022-11-20T14:22:21;1.90;99.90
22678;DHT22;26259;50.214;18.620;2022-11-20T14:24:49;1.90;99.90
22678;DHT22;26259;50.214;18.620;2022-11-20T14:27:19;1.90;99.90
22678;DHT22;26259;50.214;18.620;2022-11-20T14:29:47;1.80;99.90
22678;DHT22;26259;50.214;18.620;2022-11-20T14:32:22;1.80;99.90
22678;DHT22;26259;50.214;18.620;2022-11-20T14:34:50;1.80;99.90
22678;DHT22;26259;50.214;18.620;2022-11-20T14:37:24;1.80;99.90
22678;DHT22;26259;50.214;18.620;2022-11-20T14:39:55;1.80;99.90
22678;DHT22;26259;50.214;18.620;2022-11-20T14:42:30;1.80;99.90
22678;DHT22;26259;50.214;18.620;2022-11-20T14:44:57;1.80;99.90
22678;DHT22;26259;50.214;18.620;2022-11-20T14:47:26;1.80;99.90
22678;DHT22;26259;50.214;18.620;2022-11-20T14:49:53;1.80;99.90
22678;DHT22;26259;50.214;18.620;2022-11-20T14:52:29;1.80;99.90
22678;DHT22;26259;50.214;18.620;2022-11-20T14:54:57;1.80;99.90
22678;DHT22;26259;50.214;18.620;2022-11-20T14:57:35;1.80;99.90
22678;DHT22;26259;50.214;18.620;2022-11-20T15:02:47;1.80;99.90
22678;DHT22;26259;50.214;18.620;2022-11-20T15:05:14;1.80;99.90
22678;DHT22;26259;50.214;18.620;2022-11-20T15:07:42;1.80;99.90
22678;DHT22;26259;50.214;18.620;2022-11-20T15:13:00;1.80;99.90
22678;DHT22;26259;50.214;18.620;2022-11-20T15:15:45;1.80;99.90
22678;DHT22;26259;50.214;18.620;2022-11-20T15:18:37;1.80;99.90
22678;DHT22;26259;50.214;18.620;2022-11-20T15:21:04;1.80;99.90
22678;DHT22;26259;50.214;18.620;2022-11-20T15:23:31;1.80;99.90
22678;DHT22;26259;50.214;18.620;2022-11-20T15:25:57;1.90;99.90
22678;DHT22;26259;50.214;18.620;2022-11-20T15:30:54;1.80;99.90
22678;DHT22;26259;50.214;18.620;2022-11-20T15:33:21;1.80;99.90
22678;DHT22;26259;50.214;18.620;2022-11-20T15:35:46;1.80;99.90
22678;DHT22;26259;50.214;18.620;2022-11-20T15:38:12;1.90;99.90
22678;DHT22;26259;50.214;18.620;2022-11-20T15:40:38;1.90;99.90
22678;DHT22;26259;50.214;18.620;2022-11-20T15:43:03;1.90;99.90
22678;DHT22;26259;50.214;18.620;2022-11-20T15:45:51;1.90;99.90
22678;DHT22;26259;50.214;18.620;2022-11-20T15:48:27;1.90;99.90
22678;DHT22;26259;50.214;18.620;2022-11-20T15:53:31;1.90;99.90
22678;DHT22;26259;50.214;18.620;2022-11-20T15:55:57;1.90;99.90
22678;DHT22;26259;50.214;18.620;2022-11-20T15:58:22;1.90;99.90
22678;DHT22;26259;50.214;18.620;2022-11-20T16:00:50;1.90;99.90
22678;DHT22;26259;50.214;18.620;2022-11-20T16:03:17;1.80;99.90
22678;DHT22;26259;50.214;18.620;2022-11-20T16:05:43;1.80;99.90
22678;DHT22;26259;50.214;18.620;2022-11-20T16:08:09;1.80;99.90
22678;DHT22;26259;50.214;18.620;2022-11-20T16:10:35;1.70;99.90
22678;DHT22;26259;50.214;18.620;2022-11-20T16:13:01;1.60;99.90
22678;DHT22;26259;50.214;18.620;2022-11-20T16:15:51;1.50;99.90
22678;DHT22;26259;50.214;18.620;2022-11-20T16:18:19;1.30;99.90
22678;DHT22;26259;50.214;18.620;2022-11-20T16:20:48;1.20;99.90
22678;DHT22;26259;50.214;18.620;2022-11-20T16:23:14;1.10;99.90
22678;DHT22;26259;50.214;18.620;2022-11-20T16:25:41;1.00;99.90
22678;DHT22;26259;50.214;18.620;2022-11-20T16:28:07;0.80;99.90
22678;DHT22;26259;50.214;18.620;2022-11-20T16:30:33;0.70;99.90
22678;DHT22;26259;50.214;18.620;2022-11-20T16:32:59;0.50;99.90
22678;DHT22;26259;50.214;18.620;2022-11-20T16:35:26;0.40;99.90
22678;DHT22;26259;50.214;18.620;2022-11-20T16:37:53;0.30;99.90
22678;DHT22;26259;50.214;18.620;2022-11-20T16:40:19;0.10;99.90
22678;DHT22;26259;50.214;18.620;2022-11-20T16:42:44;-0.20;99.90
22678;DHT22;26259;50.214;18.620;2022-11-20T16:45:10;-0.30;99.90
22678;DHT22;26259;50.214;18.620;2022-11-20T16:47:36;-0.50;99.90
22678;DHT22;26259;50.214;18.620;2022-11-20T16:50:03;-0.50;99.90
22678;DHT22;26259;50.214;18.620;2022-11-20T16:52:29;-0.40;99.90
22678;DHT22;26259;50.214;18.620;2022-11-20T16:54:55;-0.20;99.90
22678;DHT22;26259;50.214;18.620;2022-11-20T16:57:20;-0.20;99.90
22678;DHT22;26259;50.214;18.620;2022-11-20T16:59:47;-0.30;99.90
22678;DHT22;26259;50.214;18.620;2022-11-20T17:02:13;-0.20;99.90
22678;DHT22;26259;50.214;18.620;2022-11-20T17:04:38;-0.30;99.90
22678;DHT22;26259;50.214;18.620;2022-11-20T17:07:06;-0.40;99.90
22678;DHT22;26259;50.214;18.620;2022-11-20T17:09:32;-0.30;99.90
22678;DHT22;26259;50.214;18.620;2022-11-20T17:11:57;-0.40;99.90
22678;DHT22;26259;50.214;18.620;2022-11-20T17:14:23;-0.40;99.90